Hlavní strana
METAR-TAF:

METAR-TAF

Letiště :

Nueva Loja, Ekvádor

zeměpisná šířka: 00-05-33N, zeměpisná délka: 076-52-10W, výška: 299 m

Aktuální stav počasí

Zpráva byla vytvořena před 2 hodinami a 45 minutami, v 23:00 UTC
Jihojihovýchodní vítr 3 kt
Teplota 29°C
Vlhkost vzduchu 74%
Tlak 1009 hPa
Viditelnost 10 km a více
Skoro jasno ve výšce 2000 ft
Oblačno až skoro zataženo ve výšce 30000 ft

METAR: SENL 252300Z 16003KT 9999 FEW020 BKN300 29/24 Q1009 RMK A2980

Čas: 20:45 (01:45 UTC)


TAF: chybějící

Stav a předpovědi počasí z více než 4 000 letišť (zprávy METAR a TAF).

Červené a žluté tečky na mapě představují dostupné meteorologické stanice.

Když kurzor umístíte na tečku, zobrazí se název stanice.

Pak kliknutím zobrazíte stav a předpověď počasí.

Chcete-li změnit mapu, kliknutím na zelené tlačítko se znaménkem +mapu přiblížíte, kliknutím na zelené tlačítko se znaménkem – mapu oddálíte a kliknutím na zelené šipky přejdete na sousední mapy.


METAR-TAF: